createdAt,value
2016-04-03T12:41:30.613Z,40.47
2016-04-03T12:42:30.724Z,40.09
2016-04-03T12:43:30.758Z,39.99
2016-04-03T12:44:30.761Z,39.79
2016-04-03T12:45:30.779Z,40.86
2016-04-03T12:46:30.813Z,40.76
2016-04-03T12:47:36.910Z,41.14
2016-04-03T12:48:30.850Z,39.89
2016-04-03T12:49:30.884Z,40.28
2016-04-03T12:50:44.527Z,39.89
2016-04-03T12:51:30.921Z,39.51
2016-04-03T12:52:30.954Z,39.22
2016-04-03T12:53:30.973Z,39.34
2016-04-03T12:54:30.990Z,39.72
2016-04-03T12:55:31.025Z,39.72
2016-04-03T12:56:35.371Z,39.82
2016-04-03T12:57:31.062Z,39.62
2016-04-03T12:58:31.095Z,39.62
2016-04-03T12:59:31.114Z,39.43
2016-04-03T13:00:31.148Z,40.11
2016-04-03T13:01:31.167Z,40.88
2016-04-03T13:02:31.434Z,39.99
2016-04-03T13:03:31.218Z,40.66
2016-04-03T13:04:31.315Z,39.99
2016-04-03T13:05:31.270Z,39.89
2016-04-03T13:06:31.305Z,40.01
2016-04-03T13:07:31.323Z,40.01
2016-04-03T13:08:31.341Z,39.24
2016-04-03T13:09:31.375Z,39.14
2016-04-03T13:10:31.394Z,38.95
2016-04-03T13:11:31.428Z,38.87
2016-04-03T13:12:32.321Z,38.87
2016-04-03T13:13:31.480Z,38.2
2016-04-03T13:14:31.749Z,37.91
2016-04-03T13:15:31.516Z,38.29
2016-04-03T13:16:33.082Z,38.2
2016-04-03T13:17:31.772Z,38.97
2016-04-03T13:18:31.712Z,38.78
2016-04-03T13:19:31.512Z,39.16
2016-04-03T13:20:31.640Z,39.06
2016-04-03T13:21:31.673Z,37.52
2016-04-03T13:22:31.690Z,37.52
2016-04-03T13:23:31.726Z,37.81
2016-04-03T13:24:31.743Z,37.13
2016-04-03T13:25:31.778Z,37.43
2016-04-03T13:26:31.796Z,38.49
2016-04-03T13:27:31.814Z,38.41
2016-04-03T13:28:32.739Z,38.49
2016-04-03T13:29:40.131Z,37.83
2016-04-03T13:30:42.542Z,37.83
2016-04-03T13:31:41.731Z,36.67
2016-04-03T13:32:44.967Z,37.91
2016-04-03T13:33:38.675Z,37.43
2016-04-03T13:34:37.317Z,37.52
2016-04-03T13:35:35.272Z,36.07
2016-04-03T13:36:35.088Z,36.27
2016-04-03T13:37:36.810Z,37.25
2016-04-03T13:38:37.266Z,36.94
2016-04-03T13:39:32.284Z,37.62
2016-04-03T13:40:32.162Z,37.81
2016-04-03T13:41:32.164Z,37.71
2016-04-03T13:42:33.605Z,36.75
2016-04-03T13:43:34.607Z,38.2
2016-04-03T13:44:36.204Z,37.91
2016-04-03T13:45:32.269Z,38.2
2016-04-03T13:46:32.302Z,36.75
2016-04-03T13:47:32.321Z,37.52
2016-04-03T13:48:37.777Z,36.46
2016-04-03T13:49:32.404Z,36.07
2016-04-03T13:50:32.408Z,36.75
2016-04-03T13:51:32.426Z,36.94
2016-04-03T13:52:32.460Z,36.48
2016-04-03T13:53:32.479Z,36.67
2016-04-03T13:54:32.496Z,37.06
2016-04-03T13:55:32.515Z,36.38
2016-04-03T13:56:33.986Z,37.15
2016-04-03T13:57:32.567Z,36.38
2016-04-03T13:58:32.601Z,37.45
2016-04-03T13:59:32.634Z,38.1
2016-04-03T14:00:32.637Z,39.74
2016-04-03T14:01:32.686Z,39.45
2016-04-03T14:02:32.705Z,39.36
2016-04-03T14:03:32.723Z,38.58
2016-04-03T14:04:32.788Z,38.2
2016-04-03T14:05:32.776Z,37.52
2016-04-03T14:06:32.809Z,38.97
2016-04-03T14:07:32.812Z,37.33
2016-04-03T14:08:32.846Z,38.2
2016-04-03T14:09:32.864Z,39.06
2016-04-03T14:10:32.899Z,37.81
2016-04-03T14:11:32.916Z,38.1
2016-04-03T14:12:32.950Z,39.16
2016-04-03T14:13:42.032Z,38.1
2016-04-03T14:14:37.316Z,36.65
2016-04-03T14:15:33.022Z,38.68
2016-04-03T14:16:33.056Z,38.39
2016-04-03T14:17:33.074Z,37.52
2016-04-03T14:18:33.092Z,38.01
2016-04-03T14:19:33.141Z,37.43
2016-04-03T14:20:33.138Z,37.33
2016-04-03T14:21:33.285Z,38.29
2016-04-03T14:22:33.195Z,38.2
2016-04-03T14:23:33.184Z,38.68
2016-04-03T14:24:33.205Z,37.33
2016-04-03T14:25:33.245Z,38.08
2016-04-03T14:26:33.211Z,38.18
2016-04-03T14:27:33.240Z,37.79
2016-04-03T14:28:33.269Z,37.79
2016-04-03T14:29:33.281Z,37.79
2016-04-03T14:30:33.313Z,38.18
2016-04-03T14:31:33.330Z,37.79
2016-04-03T14:32:33.377Z,38.66
2016-04-03T14:33:33.379Z,39.14
2016-04-03T14:34:33.567Z,37.71
2016-04-03T14:35:33.426Z,38.2
2016-04-03T14:36:33.444Z,38.78
2016-04-03T14:37:33.461Z,37.52
2016-04-03T14:38:33.495Z,37.52
2016-04-03T14:39:33.512Z,37.43
2016-04-03T14:40:33.545Z,39.16
2016-04-03T14:41:33.563Z,40.22
2016-04-03T14:42:33.596Z,38.87
2016-04-03T14:43:33.631Z,38.76
2016-04-03T14:44:33.720Z,40.03
2016-04-03T14:45:33.674Z,40.78
2016-04-03T14:46:33.911Z,40.32
2016-04-03T14:47:33.930Z,39.72
2016-04-03T14:48:33.855Z,39.74
2016-04-03T14:49:33.810Z,39.53
2016-04-03T14:50:33.781Z,40.2
2016-04-03T14:51:33.909Z,41.27
2016-04-03T14:52:33.911Z,39.24
2016-04-03T14:53:33.868Z,39.62
2016-04-03T14:54:34.136Z,39.91
2016-04-03T14:55:33.999Z,39.91
2016-04-03T14:56:33.938Z,39.34
2016-04-03T14:57:33.957Z,39.72
2016-04-03T14:58:33.991Z,39.72
2016-04-03T14:59:34.010Z,39.79
2016-04-03T15:00:34.890Z,40.3
2016-04-03T15:01:34.046Z,40.28
2016-04-03T15:02:34.079Z,40.57
2016-04-03T15:03:34.207Z,40.76
2016-04-03T15:04:34.007Z,39.99
2016-04-03T15:05:34.385Z,39.41
2016-04-03T15:06:34.199Z,39.61
2016-04-03T15:07:34.218Z,40.47
2016-04-03T15:08:34.237Z,41.05
2016-04-03T15:09:34.271Z,40.95
2016-04-03T15:10:34.289Z,41.24
2016-04-03T15:11:34.306Z,41.07
2016-04-03T15:12:34.340Z,40.86
2016-04-03T15:13:34.359Z,40.37
2016-04-03T15:14:34.440Z,40.11
2016-04-03T15:15:34.412Z,40.3
2016-04-03T15:16:34.430Z,40.19
2016-04-03T15:17:34.448Z,40.37
2016-04-03T15:18:34.560Z,40.28
2016-04-03T15:19:34.547Z,41.05
2016-04-03T15:20:34.550Z,40.86
2016-04-03T15:21:34.569Z,40.76
2016-04-03T15:22:34.586Z,41.05
2016-04-03T15:23:34.605Z,40.95
2016-04-03T15:24:34.639Z,41.14
2016-04-03T15:25:34.657Z,40.66
2016-04-03T15:26:34.675Z,41.05
2016-04-03T15:27:34.709Z,41.14
2016-04-03T15:28:34.743Z,40.66
2016-04-03T15:29:34.761Z,40.86
2016-04-03T15:30:34.795Z,40.95
2016-04-03T15:33:52.432Z,41.14
2016-04-03T15:34:52.402Z,40.57
2016-04-03T15:35:52.437Z,41.24
2016-04-03T15:36:52.455Z,41.05
2016-04-03T15:37:52.490Z,40.28
2016-04-03T15:38:52.507Z,40.28
2016-04-03T15:39:52.525Z,39.61
2016-04-03T15:40:52.543Z,39.12
2016-04-03T15:41:52.593Z,39.61
2016-04-03T15:42:52.611Z,39.51
2016-04-03T15:43:52.615Z,39.61
2016-04-03T15:44:52.665Z,39.41
2016-04-03T15:45:52.681Z,39.31
2016-04-03T15:46:52.716Z,39.61
2016-04-03T15:47:52.578Z,39.61
2016-04-03T15:48:52.753Z,39.34
2016-04-03T15:49:52.786Z,39.24
2016-04-03T15:50:52.789Z,39.43
2016-04-03T15:51:52.823Z,38.95
2016-04-03T15:52:52.857Z,39.53
2016-04-03T15:53:52.891Z,39.14
2016-04-03T15:54:52.910Z,40.01
2016-04-03T15:55:52.975Z,40.01
2016-04-03T15:56:52.961Z,40.2
2016-04-03T15:57:52.964Z,40.49
2016-04-03T15:58:52.998Z,40.2
2016-04-03T15:59:53.016Z,40.3
2016-04-03T16:00:53.052Z,40.88
2016-04-03T16:01:53.069Z,41.34
2016-04-03T16:02:53.087Z,41.72
2016-04-03T16:03:53.121Z,41.14
2016-04-03T16:04:53.155Z,40.28
2016-04-03T16:05:53.174Z,40.66
2016-04-03T16:06:53.193Z,41.05
2016-04-03T16:07:53.226Z,40.86
2016-04-03T16:08:53.291Z,40.86
2016-04-03T16:09:53.326Z,40.95
2016-04-03T16:10:53.296Z,40.95
2016-04-03T16:11:53.377Z,40.57
2016-04-03T16:12:53.348Z,40.47
2016-04-03T16:13:53.414Z,40.47
2016-04-03T16:14:53.635Z,40.86
2016-04-03T16:15:53.451Z,41.14
2016-04-03T16:16:53.500Z,42.21
2016-04-03T16:17:53.503Z,41.92
2016-04-03T16:18:53.490Z,41.72
2016-04-03T16:19:53.570Z,41.44
2016-04-03T16:20:53.542Z,42.19
2016-04-03T16:21:53.575Z,42.19
2016-04-03T16:22:53.611Z,42.19
2016-04-03T16:23:53.613Z,42.65
2016-04-03T16:24:53.630Z,42.96
2016-04-03T16:25:53.664Z,42.84
2016-04-03T16:26:53.699Z,42.65
2016-04-03T16:27:53.733Z,43.03
2016-04-03T16:28:53.752Z,43.23
2016-04-03T16:29:53.769Z,43.23
2016-04-03T16:30:53.788Z,43.23
2016-04-03T16:31:53.822Z,43.71
2016-04-03T16:32:53.855Z,43.8
2016-04-03T16:33:53.874Z,44.55
2016-04-03T16:34:53.893Z,44.45
2016-04-03T16:35:53.910Z,44.55
2016-04-03T16:36:53.944Z,44.93
2016-04-03T16:37:53.963Z,45.03
2016-04-03T16:38:55.512Z,45.03
2016-04-03T16:39:54.015Z,45.13
2016-04-03T16:40:54.034Z,45.13
2016-04-03T16:41:54.067Z,45.32
2016-04-03T16:42:54.085Z,44.93
2016-04-03T16:43:54.135Z,45.22
2016-04-03T16:44:54.138Z,45.32
2016-04-03T16:45:54.156Z,45.51
2016-04-03T16:46:54.190Z,46.19
2016-04-03T16:47:54.270Z,46.19
2016-04-03T16:48:54.227Z,45.97
2016-04-03T16:49:54.308Z,46.47
2016-04-03T16:50:54.279Z,46.55
2016-04-03T16:51:54.328Z,46.28
2016-04-03T16:52:54.316Z,46.47
2016-04-03T16:53:54.364Z,46.06
2016-04-03T16:54:54.367Z,45.97
2016-04-03T16:55:54.464Z,46.26
2016-04-03T16:56:54.420Z,46.55
2016-04-03T16:57:54.486Z,46.26
2016-04-03T16:58:54.472Z,46.55
2016-04-03T16:59:54.506Z,46.45
2016-04-03T17:00:54.509Z,46.64
2016-04-03T17:01:54.528Z,47.22
2016-04-03T17:02:54.577Z,47.22
2016-04-03T17:03:54.596Z,47.03
2016-04-03T17:04:54.613Z,46.74
2016-04-03T17:05:54.632Z,47.03
2016-04-03T17:06:54.666Z,47.13
2016-04-03T17:07:54.684Z,47.49
2016-04-03T17:08:54.718Z,47.97
2016-04-03T17:09:54.737Z,48.18
2016-04-03T17:10:54.755Z,48.45
2016-04-03T17:11:54.774Z,48.07
2016-04-03T17:12:54.807Z,48.45
2016-04-03T17:13:54.826Z,48.54
2016-04-03T17:14:54.859Z,49.12
2016-04-03T17:15:54.878Z,49.31
2016-04-03T17:16:54.911Z,49.51
2016-04-03T17:17:54.929Z,49.31
2016-04-03T17:18:54.964Z,49.41
2016-04-03T17:19:54.967Z,48.93
2016-04-03T17:20:55.000Z,49.19
2016-04-03T17:21:55.019Z,49.48
2016-04-03T17:22:55.052Z,49.48
2016-04-03T17:23:55.070Z,49.96
2016-04-03T17:24:55.089Z,49.77
2016-04-03T17:25:55.122Z,50.15
2016-04-03T17:26:55.141Z,49.96
2016-04-03T17:27:55.175Z,50.05
2016-04-03T17:28:55.194Z,49.87
2016-04-03T17:29:55.227Z,50.34
2016-04-03T17:30:55.246Z,50.15
2016-04-03T17:31:55.249Z,49.87
2016-04-03T17:32:55.282Z,50.25
2016-04-03T17:33:55.301Z,50.05
2016-04-03T17:34:55.350Z,50.05
2016-04-03T17:35:55.337Z,50.92
2016-04-03T17:36:55.371Z,50.7
2016-04-03T17:37:55.405Z,50.54
2016-04-03T17:38:55.471Z,50.8
2016-04-03T17:39:55.489Z,50.99
2016-04-03T17:40:55.491Z,51.37
2016-04-03T17:41:55.494Z,51.47
2016-04-03T17:42:55.512Z,51.47
2016-04-03T17:43:55.546Z,52.14
2016-04-03T17:44:55.565Z,52.62
2016-04-03T17:45:55.583Z,53.58
2016-04-03T17:46:55.617Z,54.35
2016-04-03T17:47:55.651Z,54.93
2016-04-03T17:48:55.654Z,56.08
2016-04-03T17:49:55.688Z,55.77
2016-04-03T17:50:55.706Z,56.05
2016-04-03T17:51:55.725Z,57.11
2016-04-03T17:52:55.759Z,58.45
2016-04-03T17:53:55.776Z,58.74
2016-04-03T17:54:55.795Z,58.84
2016-04-03T17:55:55.828Z,59.89
2016-04-03T17:56:55.847Z,59.99
2016-04-03T17:57:55.865Z,60.47
2016-04-03T17:58:55.899Z,60.47
2016-04-03T17:59:55.918Z,60.38
2016-04-03T18:00:55.936Z,60.35
2016-04-03T18:01:55.970Z,60.25
2016-04-03T18:02:55.988Z,60.08
2016-04-03T18:03:56.007Z,60.35
2016-04-03T18:04:56.040Z,60.25
2016-04-03T18:05:56.043Z,60.15
2016-04-03T18:06:56.077Z,60.25
2016-04-03T18:07:56.096Z,60.05
2016-04-03T18:08:56.129Z,60.53
2016-04-03T18:09:56.148Z,60.82
2016-04-03T18:10:56.182Z,61.3
2016-04-03T18:11:56.200Z,61.3
2016-04-03T18:12:56.218Z,61.11
2016-04-03T18:13:56.237Z,61.4
2016-04-03T18:14:56.270Z,61.37
2016-04-03T18:15:56.289Z,61.4
2016-04-03T18:16:56.307Z,61.11
2016-04-03T18:17:56.341Z,61.3
2016-04-03T18:18:56.360Z,61.11
2016-04-03T18:19:56.378Z,60.99
2016-04-03T18:20:56.396Z,61.27
2016-04-03T18:21:56.414Z,61.27
2016-04-03T18:22:56.448Z,60.79
2016-04-03T18:23:56.467Z,61.08
2016-04-03T18:24:56.485Z,60.89
2016-04-03T18:25:56.520Z,60.7
2016-04-03T18:26:56.553Z,60.7
2016-04-03T18:27:56.556Z,60.5
2016-04-03T18:28:56.589Z,60.79
2016-04-03T18:29:56.608Z,60.7
2016-04-03T18:30:56.632Z,60.6
2016-04-03T18:31:56.650Z,60.7
2016-04-03T18:32:56.684Z,60.7
2016-04-03T18:33:56.718Z,60.5
2016-04-03T18:34:56.720Z,60.89
2016-04-03T18:35:56.755Z,60.79
2016-04-03T18:36:56.772Z,60.6
2016-04-03T18:37:56.791Z,60.41
2016-04-03T18:38:56.809Z,60.41
2016-04-03T18:39:56.844Z,60.41
2016-04-03T18:40:56.861Z,60.7
2016-04-03T18:41:56.881Z,60.6
2016-04-03T18:42:56.899Z,60.31
2016-04-03T18:43:56.933Z,60.99
2016-04-03T18:44:56.950Z,60.6
2016-04-03T18:45:56.986Z,60.31
2016-04-03T18:46:57.002Z,60.6
2016-04-03T18:47:57.022Z,60.5
2016-04-03T18:48:57.040Z,60.31
2016-04-03T18:49:57.074Z,60.41
2016-04-03T18:50:57.092Z,60.41
2016-04-03T18:51:57.126Z,59.93
2016-04-03T18:52:57.129Z,60.03
2016-04-03T18:53:57.162Z,60.03
2016-04-03T18:54:57.181Z,60.22
2016-04-03T18:55:57.199Z,60.41
2016-04-03T18:56:57.217Z,60.22
2016-04-03T18:57:57.251Z,60.6
2016-04-03T18:58:57.270Z,60.41
2016-04-03T18:59:57.288Z,60.28
2016-04-03T19:00:57.322Z,60.19
2016-04-03T19:01:57.340Z,60.19
2016-04-03T19:02:57.359Z,59.93
2016-04-03T19:03:57.393Z,60
2016-04-03T19:04:57.411Z,60.28
2016-04-03T19:05:57.429Z,59.93
2016-04-03T19:06:57.448Z,60.31
2016-04-03T19:07:57.481Z,59.33
2016-04-03T19:08:57.500Z,60.19
2016-04-03T19:09:57.518Z,60.12
2016-04-03T19:10:57.552Z,59.04
2016-04-03T19:11:57.570Z,60.19
2016-04-03T19:12:57.604Z,60
2016-04-03T19:13:57.608Z,60
2016-04-03T19:14:57.642Z,60.09
2016-04-03T19:15:57.658Z,60
2016-04-03T19:16:57.694Z,59.9
2016-04-03T19:17:57.696Z,59.9
2016-04-03T19:18:57.730Z,60
2016-04-03T19:19:57.748Z,60
2016-04-03T19:20:57.783Z,59.9
2016-04-03T19:21:57.785Z,59.9
2016-04-03T19:22:57.819Z,59.71
2016-04-03T19:23:57.821Z,59.9
2016-04-03T19:24:57.105Z,60.09
2016-04-03T19:25:57.874Z,59.61
2016-04-03T19:26:57.908Z,60.19
2016-04-03T19:27:57.926Z,59.52
2016-04-03T19:28:57.960Z,59.71
2016-04-03T19:29:57.212Z,59.23
2016-04-03T19:30:57.996Z,59.23
2016-04-03T19:31:58.015Z,59.9
2016-04-03T19:32:58.049Z,59.8
2016-04-03T19:33:58.051Z,59.04
2016-04-03T19:34:58.101Z,59.52
2016-04-03T19:35:58.104Z,59.71
2016-04-03T19:36:58.137Z,59.33
2016-04-03T19:37:58.156Z,60.19
2016-04-03T19:38:58.190Z,60
2016-04-03T19:39:57.442Z,60.19
2016-04-03T19:40:58.226Z,60.38
2016-04-03T19:41:58.261Z,60.28
2016-04-03T19:42:58.263Z,60.57
2016-04-03T19:43:58.297Z,60.47
2016-04-03T19:44:58.316Z,60.38
2016-04-03T19:45:58.350Z,60.38
2016-04-03T19:46:58.367Z,60.28
2016-04-03T19:47:58.370Z,60.76
2016-04-03T19:48:58.404Z,60.86
2016-04-03T19:49:58.422Z,60.67
2016-04-03T19:50:58.441Z,60.86
2016-04-03T19:51:58.460Z,61.15
2016-04-03T19:52:58.493Z,60.96
2016-04-03T19:53:58.511Z,61.53
2016-04-03T19:54:58.530Z,61.24
2016-04-03T19:55:58.563Z,61.15
2016-04-03T19:56:58.582Z,61.82
2016-04-03T19:57:58.601Z,62.01
2016-04-03T19:58:58.634Z,61.82
2016-04-03T19:59:58.652Z,62.2
2016-04-03T20:00:58.671Z,62.01
2016-04-03T20:01:58.689Z,62.2
2016-04-03T20:02:58.724Z,62.65
2016-04-03T20:03:58.742Z,62.65
2016-04-03T20:04:58.776Z,62.93
2016-04-03T20:05:58.778Z,62.77
2016-04-03T20:06:58.812Z,63.13
2016-04-03T20:07:58.831Z,62.96
2016-04-03T20:08:58.849Z,63.03
2016-04-03T20:09:58.851Z,63.03
2016-04-03T20:10:58.886Z,62.65
2016-04-03T20:11:58.920Z,62.65
2016-04-03T20:12:58.937Z,62.65
2016-04-03T20:13:58.956Z,62.65
2016-04-03T20:14:58.974Z,62.74
2016-04-03T20:15:59.008Z,62.65
2016-04-03T20:16:59.026Z,62.84
2016-04-03T20:17:59.045Z,62.65
2016-04-03T20:18:59.078Z,62.93
2016-04-03T20:19:59.097Z,63.03
2016-04-03T20:20:59.121Z,62.93
2016-04-03T20:21:59.139Z,64.09
2016-04-03T20:22:59.173Z,63.89
2016-04-03T20:23:59.191Z,64.28
2016-04-03T20:24:59.210Z,65.05
2016-04-03T20:25:59.228Z,65.91
2016-04-03T20:26:59.247Z,66.77
2016-04-03T20:27:59.280Z,66.38
2016-04-03T20:28:59.283Z,66.96
2016-04-03T20:29:59.332Z,67.44
2016-04-03T20:30:59.351Z,67.72
2016-04-03T20:31:59.354Z,67.72
2016-04-03T20:32:59.388Z,68.49
2016-04-03T20:33:59.407Z,68.78
2016-04-03T20:34:59.440Z,69.17
2016-04-03T20:35:59.458Z,69.45
2016-04-03T20:36:59.492Z,68.97
2016-04-03T20:37:59.495Z,68.87
2016-04-03T20:38:58.763Z,68.3
2016-04-03T20:39:59.531Z,68.49
2016-04-03T20:40:59.581Z,68.68
2016-04-03T20:41:59.599Z,68.78
2016-04-03T20:42:59.618Z,68.97
2016-04-03T20:43:59.637Z,69.26
2016-04-03T20:44:59.654Z,68.97
2016-04-03T20:45:59.689Z,68.87
2016-04-03T20:46:59.706Z,69.03
2016-04-03T20:47:59.740Z,69.03
2016-04-03T20:48:59.728Z,68.74
2016-04-03T20:49:59.761Z,68.94
2016-04-03T20:50:59.781Z,68.65
2016-04-03T20:51:59.814Z,68.74
2016-04-03T20:52:59.817Z,68.94
2016-04-03T20:53:59.850Z,69.51
2016-04-03T20:54:59.884Z,69.51
2016-04-03T20:55:59.887Z,69.99
2016-04-03T20:56:59.921Z,70.37
2016-04-03T20:57:59.939Z,70.85
2016-04-03T20:58:59.957Z,70.56
2016-04-03T20:59:59.976Z,71.04
2016-04-03T21:01:00.010Z,71.04
2016-04-03T21:02:00.028Z,71.04
2016-04-03T21:03:00.047Z,71.62
2016-04-03T21:04:00.065Z,72.19
2016-04-03T21:05:00.099Z,72.09
2016-04-03T21:06:00.117Z,72.67
2016-04-03T21:07:00.136Z,72.86
2016-04-03T21:08:00.154Z,72.67
2016-04-03T21:09:00.188Z,73.34
2016-04-03T21:10:00.207Z,73.24
2016-04-03T21:11:00.224Z,73.34
2016-04-03T21:12:00.243Z,73.15
2016-04-03T21:13:00.261Z,73.34
2016-04-03T21:14:00.279Z,73.59
2016-04-03T21:15:00.313Z,73.63
2016-04-03T21:16:00.332Z,73.5
2016-04-03T21:17:00.350Z,73.59
2016-04-03T21:18:00.384Z,73.69
2016-04-03T21:19:00.387Z,73.97
2016-04-03T21:20:00.436Z,74.55
2016-04-03T21:21:00.454Z,74.93
2016-04-03T21:22:00.473Z,74.74
2016-04-03T21:23:00.491Z,74.93
2016-04-03T21:24:00.509Z,75.12
2016-04-03T21:25:00.527Z,75.51
2016-04-03T21:26:00.546Z,75.6
2016-04-03T21:27:00.580Z,75.51
2016-04-03T21:28:00.598Z,75.89
2016-04-03T21:29:00.617Z,75.89
2016-04-03T21:30:00.635Z,75.89
2016-04-03T21:31:00.653Z,76.08
2016-04-03T21:32:00.702Z,75.6
2016-04-03T21:33:00.721Z,76.18
2016-04-03T21:34:00.724Z,76.42
2016-04-03T21:35:00.758Z,76.65
2016-04-03T21:36:00.776Z,76.75
2016-04-03T21:37:00.794Z,76.81
2016-04-03T21:38:00.813Z,76.9
2016-04-03T21:39:00.846Z,77
2016-04-03T21:40:00.865Z,77
2016-04-03T21:41:00.867Z,76.71
2016-04-03T21:42:00.901Z,77
2016-04-03T21:43:00.935Z,76.9
2016-04-03T21:44:00.954Z,77.19
2016-04-03T21:45:00.973Z,77
2016-04-03T21:46:00.990Z,76.52
2016-04-03T21:47:01.009Z,76.81
2016-04-03T21:48:01.026Z,76.81
2016-04-03T21:49:01.061Z,76.9
2016-04-03T21:50:01.094Z,77
2016-04-03T21:51:01.097Z,76.71
2016-04-03T21:52:01.116Z,76.81
2016-04-03T21:53:01.134Z,76.62
2016-04-03T21:54:01.168Z,76.23
2016-04-03T21:55:01.185Z,76.33
2016-04-03T21:56:01.219Z,76.52
2016-04-03T21:57:01.222Z,75.85
2016-04-03T21:58:01.240Z,76.33
2016-04-03T21:59:01.274Z,75.76
2016-04-03T22:00:01.308Z,75.37
2016-04-03T22:01:01.326Z,75.37
2016-04-03T22:02:01.329Z,75.18
2016-04-03T22:05:01.415Z,75.09
2016-04-03T22:06:01.434Z,75.18
2016-04-03T22:07:01.452Z,74.9
2016-04-03T22:08:01.470Z,74.41
2016-04-03T22:09:01.489Z,74.61
2016-04-03T22:10:01.523Z,74.41
2016-04-03T22:11:01.542Z,74.7
2016-04-03T22:12:01.544Z,74.8
2016-04-03T22:13:01.578Z,75.09
2016-04-03T22:14:01.596Z,75.27
2016-04-03T22:15:01.614Z,75.09
2016-04-03T22:16:01.632Z,75.47
2016-04-03T22:17:01.666Z,75.27
2016-04-03T22:18:01.669Z,74.99
2016-04-03T22:19:01.703Z,74.99
2016-04-03T22:20:01.722Z,74.9
2016-04-03T22:21:01.740Z,75.37
2016-04-03T22:22:01.758Z,74.9
2016-04-03T22:23:01.791Z,75.37
2016-04-03T22:24:01.841Z,75.37
2016-04-03T22:25:01.833Z,75.18
2016-04-03T22:26:01.850Z,74.7
2016-04-03T22:27:01.870Z,74.7
2016-04-03T22:28:01.903Z,74.51
2016-04-03T22:29:01.937Z,74.41
2016-04-03T22:30:01.939Z,74.32
2016-04-03T22:31:01.958Z,73.75
2016-04-03T22:32:01.992Z,74.32
2016-04-03T22:33:02.025Z,73.65
2016-04-03T22:34:02.044Z,73.65
2016-04-03T22:35:02.062Z,73.75
2016-04-03T22:36:02.066Z,74.22
2016-04-03T22:37:02.099Z,73.84
2016-04-03T22:38:02.118Z,73.84
2016-04-03T22:39:02.136Z,74.22
2016-04-03T22:40:02.138Z,73.65
2016-04-03T22:41:02.188Z,74.13
2016-04-03T22:42:02.191Z,74.13
2016-04-03T22:43:02.209Z,74.41
2016-04-03T22:44:02.227Z,74.51
2016-04-03T22:45:02.261Z,74.51
2016-04-03T22:46:02.280Z,74.61
2016-04-03T22:47:02.298Z,74.51
2016-04-03T22:48:02.316Z,74.32
2016-04-03T22:49:02.351Z,74.9
2016-04-03T22:50:02.384Z,75.18
2016-04-03T22:51:02.387Z,75.47
2016-04-03T22:52:02.420Z,75.37
2016-04-03T22:53:02.439Z,75.18
2016-04-03T22:54:02.457Z,75.37
2016-04-03T22:55:02.476Z,75.47
2016-04-03T22:56:02.495Z,75.18
2016-04-03T22:57:02.528Z,75.37
2016-04-03T22:58:02.548Z,76.14
2016-04-03T22:59:02.565Z,75.85
2016-04-03T23:00:02.584Z,75.85
2016-04-03T23:01:02.601Z,75.66
2016-04-03T23:02:02.620Z,76.04
2016-04-03T23:03:02.654Z,75.95
2016-04-03T23:04:02.673Z,76.04
2016-04-03T23:05:02.707Z,76.42
2016-04-03T23:06:02.709Z,76.23
2016-04-03T23:07:02.743Z,76.62
2016-04-03T23:08:02.777Z,76.62
2016-04-03T23:09:02.780Z,76.71
2016-04-03T23:10:02.797Z,76.81
2016-04-03T23:11:02.816Z,76.9
2016-04-03T23:12:02.840Z,76.62
2016-04-03T23:13:02.874Z,77.19
2016-04-03T23:14:02.892Z,76.96
2016-04-03T23:15:02.910Z,77.34
2016-04-03T23:16:02.929Z,77.86
2016-04-03T23:17:02.947Z,77.25
2016-04-03T23:18:02.961Z,77.25
2016-04-03T23:19:02.995Z,78.01
2016-04-03T23:20:03.013Z,77.72
2016-04-03T23:21:03.032Z,77.63
2016-04-03T23:22:03.066Z,77.53
2016-04-03T23:23:03.084Z,77.53
2016-04-03T23:24:03.102Z,77.82
2016-04-03T23:25:03.120Z,78.11
2016-04-03T23:26:03.155Z,78.2
2016-04-03T23:27:03.166Z,77.72
2016-04-03T23:28:03.174Z,77.92
2016-04-03T23:29:03.180Z,77.82
2016-04-03T23:30:03.187Z,77.82
2016-04-03T23:31:03.194Z,77.44
2016-04-03T23:32:03.204Z,77.34
2016-04-03T23:33:03.235Z,77.25
2016-04-03T23:34:03.248Z,77.44
2016-04-03T23:35:03.278Z,77.72
2016-04-03T23:36:03.277Z,77.53
2016-04-03T23:37:03.308Z,77.53
2016-04-03T23:38:03.324Z,77.72
2016-04-03T23:39:03.341Z,77.34
2016-04-03T23:40:03.201Z,77.25
2016-04-03T23:41:03.375Z,77.25
2016-04-03T23:42:03.408Z,77.25
2016-04-03T23:43:03.410Z,77.44
2016-04-03T23:44:03.427Z,77.44
2016-04-03T23:45:03.460Z,77.44
2016-04-03T23:46:03.494Z,77.53
2016-04-03T23:47:03.511Z,77.72
2016-04-03T23:48:03.530Z,77.53
2016-04-03T23:49:03.564Z,77.53
2016-04-03T23:50:03.567Z,77.53
2016-04-03T23:51:03.600Z,77.34
2016-04-03T23:52:03.603Z,77.63
2016-04-03T23:53:03.637Z,77.25
2016-04-03T23:54:03.655Z,77.25
2016-04-03T23:55:03.658Z,77.34
2016-04-03T23:56:03.692Z,77.15
2016-04-03T23:57:03.710Z,77.63
2016-04-03T23:58:03.728Z,77.53
2016-04-03T23:59:03.747Z,77.53
